Millheim, Texas
Current Conditions -  °F | °C
As of 8:15 PM on Thursday 20 Nov 2014 (Local Time) from KELA Reporting Station
Moderate Rain Moderate Rain  
Wind Chill: 61°   Ceiling: 700
Heat Index: 61°   Visibility: 7mi
Dew Point: 61°   Wind: 8mph
Humidity: 98%   Direction: 130°SE
Pressure: 30.09"   Gusts: NA
Location:  29.7835°N, 96.2064°W
Report Text: KELA 210215Z AUTO 13007KT 7SM RA BKN007 BKN011 OVC026 16/16 A3009 RMK AO2 P0003 T01620159
Loading
Personal Weather Stations






























Interactive Weather Map New forecast layout! Learn more

10-Day Weather Forecast

Advertisements
Track Severe Weather on mobile